createdAt,value
2018-02-10T00:00:07.767Z,94.13
2018-02-10T00:02:36.116Z,90.50
2018-02-10T00:05:04.457Z,100.73
2018-02-10T00:07:32.808Z,88.83
2018-02-10T00:10:01.122Z,83.57
2018-02-10T00:12:29.448Z,75.23
2018-02-10T00:14:57.785Z,85.90
2018-02-10T00:17:26.101Z,73.00
2018-02-10T00:19:54.419Z,94.00
2018-02-10T00:22:34.471Z,79.50
2018-02-10T00:25:02.811Z,69.70
2018-02-10T00:27:31.173Z,76.30
2018-02-10T00:29:59.558Z,96.53
2018-02-10T00:32:27.926Z,83.20
2018-02-10T00:34:56.434Z,79.23
2018-02-10T00:37:24.800Z,75.20
2018-02-10T00:39:53.103Z,83.60
2018-02-10T00:42:21.459Z,103.73
2018-02-10T00:44:49.759Z,95.80
2018-02-10T00:47:18.126Z,90.13
2018-02-10T00:49:46.492Z,103.30
2018-02-10T00:52:14.868Z,92.67
2018-02-10T00:54:43.199Z,103.87
2018-02-10T00:57:11.520Z,100.37
2018-02-10T00:59:39.871Z,84.47
2018-02-10T01:02:08.209Z,99.70
2018-02-10T01:04:36.564Z,111.07
2018-02-10T01:07:04.910Z,90.30
2018-02-10T01:09:33.243Z,94.00
2018-02-10T01:12:01.627Z,85.23
2018-02-10T01:14:29.957Z,97.40
2018-02-10T01:16:58.275Z,88.00
2018-02-10T01:19:26.626Z,105.27
2018-02-10T01:21:54.938Z,86.97
2018-02-10T01:24:23.271Z,97.90
2018-02-10T01:26:51.628Z,104.73
2018-02-10T01:29:19.959Z,104.60
2018-02-10T01:31:48.304Z,102.27
2018-02-10T01:34:16.607Z,92.97
2018-02-10T01:36:44.952Z,115.83
2018-02-10T01:39:13.271Z,104.37
2018-02-10T01:41:41.612Z,89.13
2018-02-10T01:44:09.932Z,91.80
2018-02-10T01:46:38.266Z,94.50
2018-02-10T01:49:06.587Z,98.60
2018-02-10T01:51:34.937Z,96.30
2018-02-10T01:54:03.286Z,99.07
2018-02-10T01:56:31.604Z,101.60
2018-02-10T01:58:59.953Z,100.50
2018-02-10T02:01:28.283Z,127.90
2018-02-10T02:03:56.616Z,114.73
2018-02-10T02:06:24.942Z,118.13
2018-02-10T02:08:53.268Z,105.07
2018-02-10T02:11:21.597Z,119.47
2018-02-10T02:13:49.944Z,123.07
2018-02-10T02:16:18.293Z,126.20
2018-02-10T02:18:46.609Z,108.37
2018-02-10T02:21:14.950Z,106.63
2018-02-10T02:23:43.271Z,122.13
2018-02-10T02:26:12.461Z,106.30
2018-02-10T02:28:40.808Z,115.60
2018-02-10T02:31:09.132Z,103.57
2018-02-10T02:33:37.466Z,116.10
2018-02-10T02:36:05.857Z,100.80
2018-02-10T02:38:34.279Z,114.57
2018-02-10T02:41:02.620Z,118.00
2018-02-10T02:43:30.944Z,119.40
2018-02-10T02:45:59.291Z,112.47
2018-02-10T02:48:27.628Z,104.83
2018-02-10T02:50:55.949Z,106.80
2018-02-10T02:53:24.289Z,111.57
2018-02-10T02:55:52.615Z,107.03
2018-02-10T02:58:20.968Z,117.73
2018-02-10T03:00:49.316Z,107.50
2018-02-10T03:03:17.632Z,122.70
2018-02-10T03:05:45.972Z,106.20
2018-02-10T03:08:14.300Z,98.37
2018-02-10T03:10:42.631Z,123.37
2018-02-10T03:13:10.979Z,100.90
2018-02-10T03:15:39.303Z,101.67
2018-02-10T03:18:07.660Z,104.87
2018-02-10T03:20:36.005Z,102.60
2018-02-10T03:23:04.339Z,97.30
2018-02-10T03:25:33.060Z,123.07
2018-02-10T03:28:01.376Z,110.87
2018-02-10T03:30:29.707Z,103.17
2018-02-10T03:32:58.033Z,125.10
2018-02-10T03:35:26.373Z,103.67
2018-02-10T03:37:54.700Z,106.60
2018-02-10T03:40:23.051Z,108.50
2018-02-10T03:42:51.391Z,112.83
2018-02-10T03:45:19.732Z,110.37
2018-02-10T03:47:48.112Z,127.10
2018-02-10T03:50:16.445Z,103.17
2018-02-10T03:52:44.768Z,131.20
2018-02-10T03:55:13.091Z,121.27
2018-02-10T03:57:41.429Z,111.03
2018-02-10T04:00:09.769Z,111.43
2018-02-10T04:02:38.107Z,103.27
2018-02-10T04:05:06.455Z,110.70
2018-02-10T04:07:34.790Z,96.07
2018-02-10T04:10:03.109Z,92.83
2018-02-10T04:12:31.461Z,100.63
2018-02-10T04:14:59.788Z,120.87
2018-02-10T04:17:28.112Z,112.43
2018-02-10T04:19:56.437Z,111.27
2018-02-10T04:22:24.764Z,109.37
2018-02-10T04:24:53.100Z,114.87
2018-02-10T04:27:21.455Z,96.43
2018-02-10T04:29:49.807Z,117.30
2018-02-10T04:32:18.133Z,101.13
2018-02-10T04:34:46.483Z,103.13
2018-02-10T04:37:14.807Z,111.93
2018-02-10T04:39:43.144Z,89.97
2018-02-10T04:42:11.484Z,130.17
2018-02-10T04:44:39.804Z,99.63
2018-02-10T04:47:08.140Z,113.33
2018-02-10T04:49:36.475Z,96.20
2018-02-10T04:52:04.807Z,110.37
2018-02-10T04:54:33.156Z,107.03
2018-02-10T04:57:01.504Z,111.10
2018-02-10T04:59:29.833Z,88.53
2018-02-10T05:01:58.164Z,88.40
2018-02-10T05:04:26.479Z,109.50
2018-02-10T05:06:54.800Z,79.97
2018-02-10T05:09:23.131Z,102.63
2018-02-10T05:11:51.541Z,90.07
2018-02-10T05:14:19.836Z,87.07
2018-02-10T05:16:48.182Z,85.40
2018-02-10T05:19:16.498Z,104.93
2018-02-10T05:21:44.827Z,108.00
2018-02-10T05:24:13.151Z,88.97
2018-02-10T05:26:41.481Z,102.73
2018-02-10T05:29:09.814Z,96.67
2018-02-10T05:31:38.141Z,85.03
2018-02-10T05:34:06.459Z,102.83
2018-02-10T05:36:34.792Z,94.77
2018-02-10T05:39:03.224Z,94.13
2018-02-10T05:41:31.552Z,97.40
2018-02-10T05:43:59.870Z,89.10
2018-02-10T05:46:28.192Z,86.57
2018-02-10T05:48:56.510Z,81.60
2018-02-10T05:51:25.666Z,94.63
2018-02-10T05:53:54.005Z,89.47
2018-02-10T05:56:22.359Z,85.33
2018-02-10T05:58:50.703Z,86.40
2018-02-10T06:01:19.018Z,79.50
2018-02-10T06:03:47.345Z,88.73
2018-02-10T06:06:15.703Z,93.40
2018-02-10T06:08:44.037Z,96.17
2018-02-10T06:11:12.345Z,79.87
2018-02-10T06:13:40.683Z,80.40
2018-02-10T06:16:09.863Z,97.37
2018-02-10T06:18:38.215Z,92.37
2018-02-10T06:21:06.574Z,86.10
2018-02-10T06:23:34.901Z,87.83
2018-02-10T06:26:03.246Z,79.60
2018-02-10T06:28:31.558Z,88.43
2018-02-10T06:30:59.886Z,79.70
2018-02-10T06:33:28.203Z,94.93
2018-02-10T06:35:56.531Z,70.03
2018-02-10T06:38:24.856Z,73.40
2018-02-10T06:40:53.176Z,80.17
2018-02-10T06:43:21.524Z,77.27
2018-02-10T06:45:49.848Z,85.20
2018-02-10T06:48:18.194Z,97.57
2018-02-10T06:50:46.501Z,82.00
2018-02-10T06:53:14.828Z,89.23
2018-02-10T06:55:43.156Z,85.67
2018-02-10T06:58:11.526Z,89.27
2018-02-10T07:00:39.803Z,76.70
2018-02-10T07:03:08.130Z,79.73
2018-02-10T07:05:36.463Z,69.00
2018-02-10T07:08:04.824Z,87.17
2018-02-10T07:10:33.246Z,76.73
2018-02-10T07:13:01.581Z,69.83
2018-02-10T07:15:31.487Z,78.90
2018-02-10T07:17:59.824Z,71.90
2018-02-10T07:20:28.134Z,91.00
2018-02-10T07:22:56.511Z,85.80
2018-02-10T07:25:24.813Z,87.23
2018-02-10T07:27:53.196Z,70.70
2018-02-10T07:30:21.559Z,84.73
2018-02-10T07:32:49.871Z,76.37
2018-02-10T07:35:18.192Z,81.63
2018-02-10T07:37:46.861Z,78.30
2018-02-10T07:40:15.175Z,77.20
2018-02-10T07:42:43.551Z,79.30
2018-02-10T07:45:11.882Z,75.93
2018-02-10T07:47:40.284Z,80.20
2018-02-10T07:50:08.920Z,74.67
2018-02-10T07:52:37.451Z,76.23
2018-02-10T07:55:05.946Z,81.50
2018-02-10T07:57:34.301Z,89.93
2018-02-10T08:00:03.203Z,94.77
2018-02-10T08:02:31.569Z,79.53
2018-02-10T08:04:59.888Z,71.23
2018-02-10T08:07:28.225Z,85.60
2018-02-10T08:09:56.571Z,74.33
2018-02-10T08:12:24.921Z,72.63
2018-02-10T08:14:53.246Z,90.07
2018-02-10T08:17:21.633Z,90.30
2018-02-10T08:19:50.099Z,87.17
2018-02-10T08:22:18.456Z,94.23
2018-02-10T08:24:46.952Z,73.23
2018-02-10T08:27:15.284Z,77.57
2018-02-10T08:29:43.634Z,85.90
2018-02-10T08:32:12.054Z,86.57
2018-02-10T08:34:40.566Z,125.77
2018-02-10T08:37:09.072Z,75.00
2018-02-10T08:39:39.078Z,86.07
2018-02-10T08:42:07.561Z,92.57
2018-02-10T08:44:36.195Z,75.93
2018-02-10T08:47:04.824Z,80.80
2018-02-10T08:49:33.316Z,87.53
2018-02-10T08:52:01.623Z,112.63
2018-02-10T08:54:29.967Z,78.97
2018-02-10T08:56:58.308Z,78.73
2018-02-10T08:59:26.634Z,87.10
2018-02-10T09:01:55.038Z,70.03
2018-02-10T09:04:23.449Z,77.77
2018-02-10T09:06:51.805Z,79.77
2018-02-10T09:09:20.156Z,70.27
2018-02-10T09:11:48.573Z,68.63
2018-02-10T09:14:16.901Z,77.80
2018-02-10T09:16:45.240Z,72.13
2018-02-10T09:19:13.601Z,78.57
2018-02-10T09:21:41.918Z,75.43
2018-02-10T09:24:10.244Z,75.13
2018-02-10T09:26:38.664Z,73.73
2018-02-10T09:29:06.976Z,68.70
2018-02-10T09:31:35.477Z,71.73
2018-02-10T09:34:03.792Z,61.57
2018-02-10T09:36:32.144Z,62.80
2018-02-10T09:39:00.519Z,62.23
2018-02-10T09:41:29.149Z,70.07
2018-02-10T09:43:58.605Z,58.77
2018-02-10T09:46:27.047Z,64.17
2018-02-10T09:48:56.129Z,70.63
2018-02-10T09:51:24.474Z,68.03
2018-02-10T09:53:52.813Z,76.90
2018-02-10T09:56:21.147Z,73.17
2018-02-10T09:58:49.565Z,70.40
2018-02-10T10:01:17.903Z,71.33
2018-02-10T10:03:46.267Z,73.47
2018-02-10T10:06:14.632Z,55.53
2018-02-10T10:08:43.047Z,72.57
2018-02-10T10:11:11.405Z,76.53
2018-02-10T10:13:39.964Z,65.13
2018-02-10T10:16:08.407Z,76.43
2018-02-10T10:18:36.795Z,68.70
2018-02-10T10:21:05.146Z,58.60
2018-02-10T10:23:33.600Z,77.77
2018-02-10T10:26:01.972Z,70.40
2018-02-10T10:28:30.309Z,63.90
2018-02-10T10:30:59.029Z,57.37
2018-02-10T10:33:28.499Z,54.30
2018-02-10T10:35:56.846Z,58.87
2018-02-10T10:38:27.419Z,53.47
2018-02-10T10:40:55.804Z,59.60
2018-02-10T10:43:24.172Z,62.80
2018-02-10T10:45:52.534Z,71.43
2018-02-10T10:48:20.861Z,61.13
2018-02-10T10:50:49.244Z,60.17
2018-02-10T10:53:17.568Z,69.17
2018-02-10T10:55:45.928Z,55.23
2018-02-10T10:58:14.715Z,61.23
2018-02-10T11:00:43.047Z,46.50
2018-02-10T11:03:11.374Z,68.80
2018-02-10T11:05:39.714Z,61.03
2018-02-10T11:08:08.154Z,63.60
2018-02-10T11:10:36.521Z,57.30
2018-02-10T11:13:04.969Z,44.40
2018-02-10T11:15:33.944Z,55.23
2018-02-10T11:18:02.272Z,47.63
2018-02-10T11:20:30.603Z,60.93
2018-02-10T11:22:58.930Z,52.87
2018-02-10T11:25:27.276Z,54.80
2018-02-10T11:27:55.980Z,58.33
2018-02-10T11:30:24.313Z,57.33
2018-02-10T11:32:52.739Z,70.80
2018-02-10T11:35:21.188Z,66.57
2018-02-10T11:37:49.503Z,59.30
2018-02-10T11:40:17.931Z,53.93
2018-02-10T11:42:46.261Z,59.47
2018-02-10T11:45:15.068Z,59.33
2018-02-10T11:47:43.501Z,47.03
2018-02-10T11:50:12.192Z,47.27
2018-02-10T11:52:40.804Z,56.63
2018-02-10T11:55:09.278Z,45.83
2018-02-10T11:57:37.648Z,53.87
2018-02-10T12:00:05.995Z,48.67
2018-02-10T12:02:34.356Z,39.37
2018-02-10T12:05:02.918Z,52.53
2018-02-10T12:07:31.253Z,48.43
2018-02-10T12:09:58.872Z,46.10
2018-02-10T12:12:26.985Z,47.00
2018-02-10T12:14:55.304Z,50.53
2018-02-10T12:17:23.640Z,50.50
2018-02-10T12:19:52.078Z,56.70
2018-02-10T12:22:20.459Z,54.97
2018-02-10T12:24:48.811Z,44.23
2018-02-10T12:27:17.156Z,55.70
2018-02-10T12:29:45.572Z,41.73
2018-02-10T12:32:13.925Z,42.07
2018-02-10T12:34:42.369Z,43.43
2018-02-10T12:37:17.452Z,47.57
2018-02-10T12:39:45.798Z,47.40
2018-02-10T12:42:14.146Z,44.57
2018-02-10T12:44:42.469Z,49.00
2018-02-10T12:47:11.066Z,52.93
2018-02-10T12:49:39.386Z,46.20
2018-02-10T12:52:07.790Z,44.23
2018-02-10T12:54:36.182Z,43.40
2018-02-10T12:57:04.582Z,37.47
2018-02-10T12:59:32.949Z,44.90
2018-02-10T13:02:01.282Z,43.87
2018-02-10T13:04:29.647Z,42.33
2018-02-10T13:06:58.051Z,44.07
2018-02-10T13:09:26.420Z,48.00
2018-02-10T13:11:54.784Z,34.93
2018-02-10T13:14:23.246Z,44.43
2018-02-10T13:16:51.595Z,42.27
2018-02-10T13:19:19.944Z,36.27
2018-02-10T13:21:49.174Z,39.83
2018-02-10T13:24:17.564Z,41.60
2018-02-10T13:26:46.725Z,54.03
2018-02-10T13:29:15.622Z,45.70
2018-02-10T13:31:43.956Z,52.23
2018-02-10T13:34:12.297Z,47.53
2018-02-10T13:36:40.672Z,49.00
2018-02-10T13:39:09.072Z,47.90
2018-02-10T13:41:37.546Z,47.83
2018-02-10T13:44:05.925Z,57.30
2018-02-10T13:46:34.324Z,48.80
2018-02-10T13:49:02.695Z,54.70
2018-02-10T13:51:31.143Z,54.10
2018-02-10T13:53:59.475Z,52.50
2018-02-10T13:56:27.827Z,47.53
2018-02-10T13:58:56.181Z,54.27
2018-02-10T14:01:24.504Z,54.33
2018-02-10T14:03:52.925Z,51.10
2018-02-10T14:06:21.331Z,55.07
2018-02-10T14:08:50.335Z,44.90
2018-02-10T14:11:18.808Z,52.60
2018-02-10T14:13:47.140Z,48.97
2018-02-10T14:16:15.552Z,56.93
2018-02-10T14:18:43.848Z,49.40
2018-02-10T14:21:12.208Z,48.33
2018-02-10T14:23:40.558Z,41.67
2018-02-10T14:26:08.876Z,46.37
2018-02-10T14:28:37.281Z,46.60
2018-02-10T14:31:05.695Z,50.47
2018-02-10T14:33:34.049Z,46.47
2018-02-10T14:36:02.491Z,52.20
2018-02-10T14:38:30.848Z,49.97
2018-02-10T14:40:59.233Z,45.90
2018-02-10T14:43:27.615Z,52.63
2018-02-10T14:45:55.978Z,53.70
2018-02-10T14:48:24.347Z,56.80
2018-02-10T14:50:52.726Z,45.43
2018-02-10T14:53:21.064Z,55.60
2018-02-10T14:55:49.436Z,57.03
2018-02-10T14:58:17.854Z,48.50
2018-02-10T15:00:46.496Z,38.17
2018-02-10T15:03:14.839Z,45.30
2018-02-10T15:05:43.200Z,47.30
2018-02-10T15:08:11.549Z,58.50
2018-02-10T15:10:39.878Z,50.87
2018-02-10T15:13:08.358Z,54.10
2018-02-10T15:15:36.922Z,50.17
2018-02-10T15:18:05.396Z,53.33
2018-02-10T15:20:34.045Z,55.60
2018-02-10T15:23:02.748Z,58.13
2018-02-10T15:25:31.066Z,45.27
2018-02-10T15:27:59.444Z,47.63
2018-02-10T15:30:39.603Z,46.20
2018-02-10T15:33:19.741Z,50.50
2018-02-10T15:35:48.128Z,59.27
2018-02-10T15:38:16.474Z,55.17
2018-02-10T15:40:44.855Z,59.57
2018-02-10T15:43:13.310Z,51.10
2018-02-10T15:45:48.181Z,52.03
2018-02-10T15:48:16.682Z,63.40
2018-02-10T15:50:45.033Z,66.43
2018-02-10T15:53:14.719Z,55.67
2018-02-10T15:55:43.542Z,56.30
2018-02-10T15:58:13.194Z,54.03
2018-02-10T16:00:41.702Z,60.00
2018-02-10T16:03:10.036Z,66.40
2018-02-10T16:05:38.429Z,54.60
2018-02-10T16:08:07.222Z,63.93
2018-02-10T16:13:10.628Z,64.07
2018-02-10T16:15:38.997Z,72.70
2018-02-10T16:18:07.389Z,57.03
2018-02-10T16:20:35.919Z,64.57
2018-02-10T16:23:04.594Z,67.63
2018-02-10T16:25:33.022Z,52.87
2018-02-10T16:28:01.665Z,62.47
2018-02-10T16:30:30.083Z,57.40
2018-02-10T16:32:58.432Z,70.00
2018-02-10T16:35:26.827Z,58.50
2018-02-10T16:37:55.361Z,55.87
2018-02-10T16:40:23.760Z,61.53
2018-02-10T16:42:52.240Z,69.10
2018-02-10T16:45:20.577Z,63.80
2018-02-10T16:47:48.992Z,67.37
2018-02-10T16:50:17.303Z,55.13
2018-02-10T16:52:45.688Z,61.80
2018-02-10T16:55:14.064Z,64.00
2018-02-10T16:57:42.404Z,65.83
2018-02-10T17:00:10.846Z,63.70
2018-02-10T17:02:39.432Z,75.07
2018-02-10T17:05:07.792Z,86.37
2018-02-10T17:07:36.194Z,79.53
2018-02-10T17:10:04.617Z,69.63
2018-02-10T17:12:33.172Z,70.60
2018-02-10T17:15:01.485Z,70.57
2018-02-10T17:17:30.168Z,66.70
2018-02-10T17:19:58.488Z,66.97
2018-02-10T17:22:26.828Z,63.43
2018-02-10T17:24:55.172Z,73.00
2018-02-10T17:27:23.610Z,63.20
2018-02-10T17:29:52.002Z,66.43
2018-02-10T17:32:20.622Z,61.43
2018-02-10T17:34:48.949Z,68.83
2018-02-10T17:37:17.263Z,73.40
2018-02-10T17:39:46.297Z,67.00
2018-02-10T17:42:14.717Z,66.87
2018-02-10T17:44:43.087Z,70.17
2018-02-10T17:47:11.470Z,62.23
2018-02-10T17:49:39.832Z,71.93
2018-02-10T17:52:08.349Z,69.70
2018-02-10T17:54:36.710Z,68.53
2018-02-10T17:57:05.172Z,71.60
2018-02-10T17:59:33.529Z,61.47
2018-02-10T18:02:02.121Z,77.70
2018-02-10T18:04:30.479Z,72.20
2018-02-10T18:06:58.827Z,80.93
2018-02-10T18:12:01.901Z,85.67
2018-02-10T18:14:30.294Z,74.93
2018-02-10T18:16:58.707Z,82.17
2018-02-10T18:19:27.113Z,72.17
2018-02-10T18:21:55.458Z,73.37
2018-02-10T18:24:23.801Z,77.27
2018-02-10T18:26:52.180Z,86.33
2018-02-10T18:29:20.544Z,86.97
2018-02-10T18:31:48.868Z,78.17
2018-02-10T18:34:17.312Z,72.93
2018-02-10T18:36:45.624Z,71.03
2018-02-10T18:39:13.988Z,66.40
2018-02-10T18:41:42.528Z,65.37
2018-02-10T18:44:10.937Z,77.87
2018-02-10T18:46:39.268Z,61.10
2018-02-10T18:49:07.664Z,77.30
2018-02-10T18:51:36.079Z,58.80
2018-02-10T18:54:04.401Z,91.80
2018-02-10T18:56:32.858Z,66.30
2018-02-10T18:59:01.810Z,72.57
2018-02-10T19:01:30.162Z,60.97
2018-02-10T19:03:58.507Z,66.90
2018-02-10T19:06:26.855Z,56.37
2018-02-10T19:08:55.191Z,75.40
2018-02-10T19:11:23.551Z,57.70
2018-02-10T19:13:51.969Z,58.70
2018-02-10T19:16:20.243Z,56.13
2018-02-10T19:18:49.588Z,65.90
2018-02-10T19:21:18.116Z,59.77
2018-02-10T19:23:46.465Z,64.17
2018-02-10T19:26:14.941Z,53.60
2018-02-10T19:28:43.295Z,56.83
2018-02-10T19:31:11.686Z,56.33
2018-02-10T19:33:40.032Z,47.00
2018-02-10T19:36:08.423Z,61.50
2018-02-10T19:38:36.880Z,48.63
2018-02-10T19:41:05.287Z,53.80
2018-02-10T19:43:33.615Z,45.87
2018-02-10T19:46:01.987Z,44.50
2018-02-10T19:48:30.332Z,47.63
2018-02-10T19:50:58.678Z,56.63
2018-02-10T19:53:27.213Z,41.50
2018-02-10T19:55:55.484Z,41.90
2018-02-10T19:58:23.813Z,45.50
2018-02-10T20:00:52.166Z,41.43
2018-02-10T20:03:20.594Z,59.53
2018-02-10T20:05:48.903Z,46.17
2018-02-10T20:08:17.245Z,38.17
2018-02-10T20:10:45.580Z,44.43
2018-02-10T20:13:13.996Z,32.90
2018-02-10T20:15:42.434Z,31.10
2018-02-10T20:18:10.847Z,38.60
2018-02-10T20:20:39.189Z,47.93
2018-02-10T20:23:07.532Z,42.00
2018-02-10T20:25:36.922Z,38.77
2018-02-10T20:28:05.351Z,38.77
2018-02-10T20:30:33.805Z,35.53
2018-02-10T20:33:02.174Z,42.13
2018-02-10T20:35:30.557Z,38.83
2018-02-10T20:37:58.928Z,49.50
2018-02-10T20:40:27.287Z,37.70
2018-02-10T20:42:55.620Z,30.30
2018-02-10T20:45:23.947Z,40.10
2018-02-10T20:47:52.325Z,38.90
2018-02-10T20:50:20.700Z,34.73
2018-02-10T20:52:49.003Z,36.60
2018-02-10T20:55:17.610Z,36.57
2018-02-10T20:57:45.930Z,38.53
2018-02-10T21:00:14.267Z,37.13
2018-02-10T21:02:42.605Z,32.27
2018-02-10T21:05:10.951Z,29.57
2018-02-10T21:07:39.330Z,42.87
2018-02-10T21:10:07.701Z,36.73
2018-02-10T21:12:36.137Z,35.90
2018-02-10T21:15:04.524Z,34.13
2018-02-10T21:17:32.897Z,32.90
2018-02-10T21:20:01.234Z,54.87
2018-02-10T21:22:29.559Z,33.70
2018-02-10T21:24:57.903Z,33.07
2018-02-10T21:27:26.234Z,34.43
2018-02-10T21:29:54.631Z,30.67
2018-02-10T21:32:23.035Z,30.93
2018-02-10T21:34:51.312Z,33.07
2018-02-10T21:37:19.642Z,33.20
2018-02-10T21:39:48.107Z,48.33
2018-02-10T21:42:16.446Z,35.33
2018-02-10T21:44:44.786Z,30.73
2018-02-10T21:47:13.140Z,31.83
2018-02-10T21:49:41.503Z,32.80
2018-02-10T21:52:10.939Z,35.10
2018-02-10T21:54:39.287Z,35.50
2018-02-10T21:57:07.627Z,39.70
2018-02-10T21:59:36.055Z,31.27
2018-02-10T22:02:04.381Z,30.43
2018-02-10T22:04:32.699Z,39.13
2018-02-10T22:07:01.040Z,35.50
2018-02-10T22:09:29.406Z,32.97
2018-02-10T22:11:57.772Z,32.33
2018-02-10T22:14:26.108Z,38.27
2018-02-10T22:16:55.246Z,41.67
2018-02-10T22:19:23.598Z,31.77
2018-02-10T22:21:52.009Z,28.20
2018-02-10T22:24:20.345Z,31.70
2018-02-10T22:26:48.666Z,33.23
2018-02-10T22:29:17.379Z,37.50
2018-02-10T22:31:45.777Z,29.17
2018-02-10T22:34:14.123Z,30.53
2018-02-10T22:36:42.458Z,29.63
2018-02-10T22:39:10.788Z,33.10
2018-02-10T22:41:39.148Z,31.53
2018-02-10T22:44:07.552Z,34.30
2018-02-10T22:46:36.208Z,29.80
2018-02-10T22:49:04.611Z,26.00
2018-02-10T22:51:32.959Z,27.67
2018-02-10T22:54:01.293Z,27.60
2018-02-10T22:56:29.645Z,28.20
2018-02-10T22:58:57.944Z,31.60
2018-02-10T23:01:26.324Z,31.73
2018-02-10T23:03:54.640Z,28.97
2018-02-10T23:06:22.978Z,33.43
2018-02-10T23:08:51.306Z,31.40
2018-02-10T23:11:19.979Z,50.77
2018-02-10T23:13:48.336Z,24.57
2018-02-10T23:16:16.657Z,27.50
2018-02-10T23:18:44.988Z,27.77
2018-02-10T23:21:13.336Z,25.67
2018-02-10T23:23:41.686Z,29.23
2018-02-10T23:26:09.999Z,42.67
2018-02-10T23:28:38.356Z,34.17
2018-02-10T23:31:06.734Z,32.23
2018-02-10T23:33:35.141Z,25.33
2018-02-10T23:36:03.504Z,27.10
2018-02-10T23:38:31.860Z,25.30
2018-02-10T23:41:00.231Z,35.30
2018-02-10T23:43:28.574Z,25.93
2018-02-10T23:45:56.920Z,30.40
2018-02-10T23:48:25.253Z,30.27
2018-02-10T23:50:53.622Z,37.63
2018-02-10T23:53:22.001Z,33.47
2018-02-10T23:55:50.363Z,22.60
2018-02-10T23:58:18.735Z,22.13
